createdAt,value
2023-03-08T00:00:48.385Z,0
2023-03-08T00:06:05.830Z,0
2023-03-08T00:11:23.152Z,0
2023-03-08T00:16:43.590Z,0
2023-03-08T00:22:00.955Z,0
2023-03-08T00:27:18.333Z,0
2023-03-08T00:32:35.783Z,0
2023-03-08T00:37:52.992Z,0
2023-03-08T00:43:10.239Z,0
2023-03-08T00:48:27.749Z,0
2023-03-08T00:53:45.176Z,0
2023-03-08T00:59:04.693Z,0
2023-03-08T01:04:22.025Z,0
2023-03-08T01:09:42.337Z,0
2023-03-08T01:14:59.831Z,0
2023-03-08T01:20:17.239Z,0
2023-03-08T01:25:34.707Z,0
2023-03-08T01:30:52.038Z,0
2023-03-08T01:36:18.457Z,0
2023-03-08T01:41:35.859Z,0
2023-03-08T01:46:53.364Z,0
2023-03-08T01:52:10.674Z,0
2023-03-08T02:02:48.258Z,0
2023-03-08T02:08:08.314Z,0
2023-03-08T02:13:26.162Z,0
2023-03-08T02:18:43.554Z,0
2023-03-08T02:24:00.907Z,0
2023-03-08T02:29:20.561Z,0
2023-03-08T02:34:37.997Z,0
2023-03-08T02:39:55.600Z,0
2023-03-08T02:45:12.925Z,0
2023-03-08T02:50:30.128Z,0
2023-03-08T02:55:47.476Z,0
2023-03-08T03:01:04.979Z,0
2023-03-08T03:06:24.507Z,0
2023-03-08T03:11:42.097Z,0
2023-03-08T03:16:59.398Z,0
2023-03-08T03:22:54.004Z,0
2023-03-08T03:28:11.904Z,0
2023-03-08T03:33:32.284Z,0
2023-03-08T03:38:49.480Z,0
2023-03-08T03:44:06.817Z,0
2023-03-08T03:49:24.147Z,0
2023-03-08T03:54:41.468Z,0
2023-03-08T04:00:01.669Z,0
2023-03-08T04:05:35.015Z,0
2023-03-08T04:10:52.265Z,0
2023-03-08T04:16:09.981Z,0
2023-03-08T04:27:08.722Z,0
2023-03-08T04:32:26.228Z,0
2023-03-08T04:37:43.562Z,0
2023-03-08T04:43:08.072Z,0
2023-03-08T04:48:26.497Z,0
2023-03-08T04:53:52.527Z,0
2023-03-08T04:59:10.053Z,0
2023-03-08T05:04:27.376Z,0
2023-03-08T05:09:44.778Z,0
2023-03-08T05:15:01.961Z,0
2023-03-08T05:20:19.255Z,0
2023-03-08T05:25:36.596Z,0
2023-03-08T05:30:53.787Z,0
2023-03-08T05:36:11.104Z,0
2023-03-08T05:41:28.598Z,0
2023-03-08T05:46:45.883Z,0
2023-03-08T05:57:32.145Z,0
2023-03-08T06:02:49.673Z,0
2023-03-08T06:08:07.081Z,0.5
2023-03-08T06:13:26.502Z,0.9
2023-03-08T06:18:43.491Z,17.9
2023-03-08T06:24:02.944Z,25.4
2023-03-08T06:29:20.414Z,40.4
2023-03-08T06:34:37.548Z,80
2023-03-08T06:39:54.950Z,163.3
2023-03-08T06:45:12.062Z,183.3
2023-03-08T06:50:29.128Z,165.8
2023-03-08T06:55:46.000Z,164.6
2023-03-08T07:01:02.813Z,221.7
2023-03-08T07:06:22.400Z,167.9
2023-03-08T07:11:39.352Z,184.2
2023-03-08T07:16:56.367Z,196.7
2023-03-08T07:22:15.963Z,184.2
2023-03-08T07:27:33.452Z,257.1
2023-03-08T07:32:50.831Z,420.8
2023-03-08T07:38:07.875Z,320.8
2023-03-08T07:43:24.785Z,307.9
2023-03-08T07:48:41.793Z,255
2023-03-08T07:53:58.845Z,415
2023-03-08T07:59:15.873Z,715.4
2023-03-08T08:04:32.944Z,1013.3
2023-03-08T08:09:50.138Z,1181.3
2023-03-08T08:15:07.077Z,1306.3
2023-03-08T08:20:24.081Z,1297.1
2023-03-08T08:25:43.516Z,1135.8
2023-03-08T08:31:01.224Z,1084.2
2023-03-08T08:36:18.525Z,1042.5
2023-03-08T08:47:00.518Z,961.2
2023-03-08T08:52:21.201Z,909.2
2023-03-08T08:57:38.547Z,978.3
2023-03-08T09:02:55.562Z,676.2
2023-03-08T09:08:15.879Z,756.2
2023-03-08T09:13:32.905Z,980.4
2023-03-08T09:18:49.861Z,1448.7
2023-03-08T09:24:07.499Z,1482.1
2023-03-08T09:29:24.554Z,1681.7
2023-03-08T09:34:41.800Z,1597.5
2023-03-08T09:39:59.011Z,1397.5
2023-03-08T09:45:15.939Z,1372.5
2023-03-08T09:50:33.895Z,1405
2023-03-08T09:55:58.570Z,1361.7
2023-03-08T10:01:15.884Z,1402.5
2023-03-08T10:06:32.806Z,1611.2
2023-03-08T10:11:51.147Z,1622.5
2023-03-08T10:17:08.152Z,1653.7
2023-03-08T10:22:25.696Z,1330.4
2023-03-08T10:27:45.267Z,1270.8
2023-03-08T10:33:02.847Z,1309.2
2023-03-08T10:38:19.632Z,1353.3
2023-03-08T10:43:36.797Z,1369.2
2023-03-08T10:48:56.186Z,1593.3
2023-03-08T10:54:16.252Z,1817.1
2023-03-08T10:59:33.338Z,2064.2
2023-03-08T11:04:50.474Z,1979.6
2023-03-08T11:10:07.705Z,1732.9
2023-03-08T11:15:24.471Z,2219.6
2023-03-08T11:20:41.955Z,2748.3
2023-03-08T11:25:59.077Z,2442.1
2023-03-08T11:31:16.216Z,2107.9
2023-03-08T11:36:33.239Z,1994.6
2023-03-08T11:41:50.524Z,2472.9
2023-03-08T11:47:07.689Z,2205
2023-03-08T11:52:24.703Z,3151.2
2023-03-08T12:02:51.764Z,2391.7
2023-03-08T12:13:28.698Z,1896.2
2023-03-08T12:18:45.609Z,1838.7
2023-03-08T12:24:03.936Z,2202.1
2023-03-08T12:29:23.402Z,2222.1
2023-03-08T12:34:40.585Z,2359.2
2023-03-08T12:39:57.824Z,1725.8
2023-03-08T12:45:14.557Z,1501.7
2023-03-08T12:50:31.732Z,1943.7
2023-03-08T12:55:52.192Z,2179.6
2023-03-08T13:01:11.929Z,2677.1
2023-03-08T13:06:29.508Z,3404.2
2023-03-08T13:11:52.154Z,2179.6
2023-03-08T13:17:12.132Z,3087.9
2023-03-08T13:22:29.751Z,2277.9
2023-03-08T13:27:46.874Z,1660.4
2023-03-08T13:33:03.982Z,1915.4
2023-03-08T13:38:21.611Z,2211.3
2023-03-08T13:43:38.916Z,2643.8
2023-03-08T13:48:56.072Z,1613.3
2023-03-08T13:54:13.029Z,1709.2
2023-03-08T13:59:30.246Z,1401.7
2023-03-08T14:04:47.525Z,1430.4
2023-03-08T14:10:11.915Z,1316.3
2023-03-08T14:15:29.334Z,1192.5
2023-03-08T14:20:56.865Z,1085
2023-03-08T14:26:14.061Z,962.5
2023-03-08T14:31:31.159Z,761.2
2023-03-08T14:36:48.024Z,762.5
2023-03-08T14:42:08.553Z,807.1
2023-03-08T14:47:25.823Z,915.8
2023-03-08T14:52:45.250Z,826.7
2023-03-08T14:58:02.243Z,783.3
2023-03-08T15:03:19.207Z,716.7
2023-03-08T15:08:36.218Z,796.2
2023-03-08T15:13:53.240Z,724.2
2023-03-08T15:19:10.147Z,748.7
2023-03-08T15:24:31.025Z,703.3
2023-03-08T15:29:48.070Z,578.3
2023-03-08T15:35:08.120Z,577.9
2023-03-08T15:40:28.333Z,546.2
2023-03-08T15:45:45.394Z,497.1
2023-03-08T15:51:02.289Z,581.7
2023-03-08T15:56:19.403Z,480
2023-03-08T16:01:53.786Z,493.7
2023-03-08T16:07:12.262Z,448.3
2023-03-08T16:12:29.301Z,407.5
2023-03-08T16:17:46.551Z,431.2
2023-03-08T16:23:03.510Z,322.9
2023-03-08T16:28:20.624Z,326.7
2023-03-08T16:33:37.685Z,361.7
2023-03-08T16:38:57.638Z,342.9
2023-03-08T16:44:14.819Z,310.4
2023-03-08T16:49:31.698Z,259.6
2023-03-08T16:54:48.710Z,239.6
2023-03-08T17:00:08.100Z,168.8
2023-03-08T17:05:25.325Z,135.8
2023-03-08T17:10:42.359Z,113.3
2023-03-08T17:15:59.290Z,70
2023-03-08T17:26:39.723Z,33.3
2023-03-08T17:31:56.904Z,26.7
2023-03-08T17:37:17.388Z,0.5
2023-03-08T17:42:34.570Z,0
2023-03-08T17:47:54.037Z,0
2023-03-08T17:53:11.516Z,0
2023-03-08T17:58:28.728Z,0
2023-03-08T18:09:06.642Z,0
2023-03-08T18:14:31.196Z,0
2023-03-08T18:19:55.548Z,0
2023-03-08T18:25:13.039Z,0
2023-03-08T18:30:30.397Z,0
2023-03-08T18:35:47.996Z,0
2023-03-08T18:41:05.436Z,0
2023-03-08T18:46:27.922Z,0
2023-03-08T18:51:45.396Z,0
2023-03-08T18:57:03.632Z,0
2023-03-08T19:07:31.278Z,0
2023-03-08T19:12:48.613Z,0
2023-03-08T19:18:06.023Z,0
2023-03-08T19:23:30.709Z,0
2023-03-08T19:28:47.996Z,0
2023-03-08T19:34:05.267Z,0
2023-03-08T19:39:22.698Z,0
2023-03-08T19:44:40.252Z,0
2023-03-08T19:50:27.305Z,0
2023-03-08T19:55:45.242Z,0
2023-03-08T20:01:02.413Z,0
2023-03-08T20:06:19.722Z,0
2023-03-08T20:16:58.082Z,0
2023-03-08T20:22:15.340Z,0
2023-03-08T20:27:32.547Z,0
2023-03-08T20:32:50.164Z,0
2023-03-08T20:38:07.576Z,0
2023-03-08T20:43:24.718Z,0
2023-03-08T20:48:42.123Z,0
2023-03-08T20:53:59.590Z,0
2023-03-08T20:59:17.146Z,0
2023-03-08T21:04:34.643Z,0
2023-03-08T21:09:52.340Z,0
2023-03-08T21:15:09.509Z,0
2023-03-08T21:20:26.730Z,0
2023-03-08T21:25:44.010Z,0
2023-03-08T21:31:01.302Z,0
2023-03-08T21:36:29.875Z,0
2023-03-08T21:41:47.301Z,0
2023-03-08T21:47:04.537Z,0
2023-03-08T21:52:28.396Z,0
2023-03-08T21:57:45.875Z,0
2023-03-08T22:03:03.197Z,0
2023-03-08T22:08:20.643Z,0
2023-03-08T22:13:37.659Z,0
2023-03-08T22:18:55.219Z,0
2023-03-08T22:24:12.484Z,0
2023-03-08T22:29:29.764Z,0
2023-03-08T22:34:47.244Z,0
2023-03-08T22:40:04.694Z,0
2023-03-08T22:45:22.195Z,0
2023-03-08T22:50:42.649Z,0
2023-03-08T22:56:00.003Z,0
2023-03-08T23:01:17.450Z,0
2023-03-08T23:06:34.739Z,0
2023-03-08T23:11:52.138Z,0
2023-03-08T23:17:09.421Z,0
2023-03-08T23:22:26.804Z,0
2023-03-08T23:27:44.136Z,0
2023-03-08T23:33:01.476Z,0
2023-03-08T23:38:18.715Z,0
2023-03-08T23:43:36.126Z,0
2023-03-08T23:48:53.379Z,0
2023-03-08T23:54:10.845Z,0
2023-03-08T23:59:28.365Z,0
